TimeMDT,TemperatureF,Dew PointF,Humidity,Sea Level PressureIn,VisibilityMPH,Wind Direction,Wind SpeedMPH,Gust SpeedMPH,PrecipitationIn,Events,Conditions,WindDirDegrees,DateUTC
12:15 AM,48.2,35.6,62,30.43,10.0,Calm,Calm,-,N/A,,Mostly Cloudy,0,2011-10-02 06:15:00
12:35 AM,46.4,35.6,66,30.43,10.0,North,4.6,-,N/A,,Partly Cloudy,360,2011-10-02 06:35:00
12:55 AM,46.4,35.6,66,30.43,10.0,North,4.6,-,N/A,,Clear,10,2011-10-02 06:55:00
1:15 AM,44.6,33.8,66,30.43,10.0,Calm,Calm,-,N/A,,Clear,0,2011-10-02 07:15:00
1:35 AM,44.6,33.8,66,30.43,10.0,NNW,3.5,-,N/A,,Clear,340,2011-10-02 07:35:00
1:55 AM,42.8,35.6,76,30.44,10.0,Calm,Calm,-,N/A,,Clear,0,2011-10-02 07:55:00
2:15 AM,42.8,33.8,70,30.44,10.0,Calm,Calm,-,N/A,,Clear,0,2011-10-02 08:15:00
2:35 AM,39.2,32.0,75,30.44,10.0,ENE,3.5,-,N/A,,Clear,70,2011-10-02 08:35:00
2:55 AM,41.0,33.8,76,30.44,10.0,Calm,Calm,-,N/A,,Clear,0,2011-10-02 08:55:00
3:15 AM,41.0,33.8,76,30.44,10.0,Calm,Calm,-,N/A,,Clear,0,2011-10-02 09:15:00
3:35 AM,37.4,30.2,75,30.44,10.0,East,3.5,-,N/A,,Clear,80,2011-10-02 09:35:00
3:55 AM,35.6,30.2,81,30.44,10.0,Calm,Calm,-,N/A,,Clear,0,2011-10-02 09:55:00
4:15 AM,39.2,32.0,75,30.44,10.0,NNW,3.5,-,N/A,,Clear,340,2011-10-02 10:15:00
4:55 AM,35.6,28.4,75,30.44,10.0,SE,3.5,-,N/A,,Clear,130,2011-10-02 10:55:00
5:15 AM,35.6,28.4,75,30.45,10.0,Calm,Calm,-,N/A,,Clear,0,2011-10-02 11:15:00
5:35 AM,37.4,30.2,75,30.45,10.0,North,3.5,-,N/A,,Clear,10,2011-10-02 11:35:00
5:55 AM,35.6,28.4,75,30.45,10.0,Calm,Calm,-,N/A,,Clear,0,2011-10-02 11:55:00
6:15 AM,33.8,28.4,81,30.45,10.0,Calm,Calm,-,N/A,,Clear,0,2011-10-02 12:15:00
6:35 AM,35.6,30.2,81,30.46,10.0,Calm,Calm,-,N/A,,Clear,0,2011-10-02 12:35:00
6:55 AM,33.8,28.4,81,30.46,10.0,Calm,Calm,-,N/A,,Clear,0,2011-10-02 12:55:00
7:15 AM,33.8,28.4,81,30.47,10.0,Calm,Calm,-,N/A,,Clear,0,2011-10-02 13:15:00
7:35 AM,33.8,26.6,75,30.47,10.0,NE,3.5,-,N/A,,Clear,50,2011-10-02 13:35:00
7:55 AM,35.6,28.4,75,30.48,10.0,Calm,Calm,-,N/A,,Clear,0,2011-10-02 13:55:00
8:15 AM,35.6,28.4,75,30.48,10.0,Calm,Calm,-,N/A,,Clear,0,2011-10-02 14:15:00
8:35 AM,37.4,30.2,75,30.48,10.0,Calm,Calm,-,N/A,,Clear,0,2011-10-02 14:35:00
8:55 AM,39.2,30.2,70,30.48,10.0,Calm,Calm,-,N/A,,Clear,0,2011-10-02 14:55:00
9:15 AM,42.8,32.0,66,30.48,10.0,Calm,Calm,-,N/A,,Clear,0,2011-10-02 15:15:00
9:35 AM,44.6,32.0,61,30.48,10.0,Calm,Calm,-,N/A,,Clear,0,2011-10-02 15:35:00
9:55 AM,46.4,32.0,57,30.47,10.0,Calm,Calm,-,N/A,,Clear,0,2011-10-02 15:55:00
10:15 AM,48.2,32.0,54,30.47,10.0,Calm,Calm,-,N/A,,Clear,0,2011-10-02 16:15:00
10:35 AM,51.8,33.8,50,30.46,10.0,Calm,Calm,-,N/A,,Clear,0,2011-10-02 16:35:00
10:55 AM,53.6,33.8,47,30.45,10.0,Calm,Calm,-,N/A,,Clear,0,2011-10-02 16:55:00
11:15 AM,55.4,33.8,44,30.44,10.0,Calm,Calm,-,N/A,,Clear,0,2011-10-02 17:15:00
11:55 AM,60.8,35.6,39,30.42,10.0,Calm,Calm,-,N/A,,Clear,0,2011-10-02 17:55:00
12:15 PM,62.6,35.6,37,30.41,10.0,Calm,Calm,-,N/A,,Clear,0,2011-10-02 18:15:00
12:55 PM,64.4,33.8,32,30.38,10.0,Calm,Calm,-,N/A,,Clear,0,2011-10-02 18:55:00
1:15 PM,66.2,32.0,28,30.37,10.0,Calm,Calm,-,N/A,,Clear,0,2011-10-02 19:15:00
1:35 PM,68.0,32.0,26,30.36,10.0,South,3.5,-,N/A,,Clear,180,2011-10-02 19:35:00
1:55 PM,69.8,30.2,23,30.35,10.0,SW,5.8,-,N/A,,Clear,220,2011-10-02 19:55:00
2:15 PM,69.8,30.2,23,30.34,10.0,South,4.6,-,N/A,,Mostly Cloudy,180,2011-10-02 20:15:00
2:35 PM,69.8,32.0,25,30.34,10.0,WSW,3.5,-,N/A,,Scattered Clouds,250,2011-10-02 20:35:00
2:55 PM,69.8,30.2,23,30.33,10.0,SSW,8.1,-,N/A,,Clear,200,2011-10-02 20:55:00
3:35 PM,68.0,32.0,26,30.33,10.0,NNW,9.2,18.4,N/A,,Mostly Cloudy,330,2011-10-02 21:35:00
4:15 PM,68.0,30.2,24,30.32,10.0,WNW,11.5,-,N/A,,Overcast,290,2011-10-02 22:15:00
4:35 PM,66.2,32.0,28,30.33,10.0,WNW,10.4,-,N/A,,Mostly Cloudy,290,2011-10-02 22:35:00
4:55 PM,64.4,33.8,32,30.33,10.0,NNW,12.7,21.9,N/A,,Partly Cloudy,340,2011-10-02 22:55:00
5:15 PM,64.4,33.8,32,30.34,10.0,NNW,9.2,-,N/A,,Clear,330,2011-10-02 23:15:00
5:55 PM,62.6,35.6,37,30.36,10.0,Calm,Calm,-,N/A,,Scattered Clouds,0,2011-10-02 23:55:00
6:15 PM,60.8,35.6,39,30.36,10.0,SSW,13.8,19.6,N/A,,Mostly Cloudy,210,2011-10-03 00:15:00
6:35 PM,60.8,35.6,39,30.36,10.0,SW,10.4,18.4,N/A,,Partly Cloudy,230,2011-10-03 00:35:00
6:55 PM,60.8,35.6,39,30.35,10.0,WSW,9.2,-,N/A,,Clear,250,2011-10-03 00:55:00
7:15 PM,59.0,35.6,42,30.36,10.0,West,4.6,-,N/A,,Clear,270,2011-10-03 01:15:00
7:35 PM,57.2,37.4,48,30.36,10.0,Calm,Calm,-,N/A,,Mostly Cloudy,0,2011-10-03 01:35:00
7:55 PM,57.2,37.4,48,30.36,10.0,NW,4.6,-,N/A,,Overcast,310,2011-10-03 01:55:00
8:15 PM,57.2,35.6,44,30.36,10.0,NNW,4.6,-,N/A,,Mostly Cloudy,340,2011-10-03 02:15:00
8:35 PM,55.4,35.6,47,30.37,10.0,North,3.5,-,N/A,,Overcast,10,2011-10-03 02:35:00
8:55 PM,55.4,35.6,47,30.38,10.0,North,4.6,-,N/A,,Mostly Cloudy,350,2011-10-03 02:55:00
9:15 PM,53.6,35.6,51,30.38,10.0,North,3.5,-,N/A,,Mostly Cloudy,360,2011-10-03 03:15:00
9:35 PM,53.6,37.4,54,30.38,10.0,NNW,3.5,-,N/A,,Overcast,340,2011-10-03 03:35:00
9:55 PM,53.6,35.6,51,30.38,10.0,North,4.6,-,N/A,,Overcast,360,2011-10-03 03:55:00
10:15 PM,53.6,35.6,51,30.39,10.0,Calm,Calm,-,N/A,,Mostly Cloudy,0,2011-10-03 04:15:00
10:35 PM,51.8,37.4,58,30.39,10.0,Calm,Calm,-,N/A,,Mostly Cloudy,0,2011-10-03 04:35:00
10:55 PM,51.8,35.6,54,30.39,10.0,Calm,Calm,-,N/A,,Overcast,0,2011-10-03 04:55:00
11:15 PM,48.2,35.6,62,30.39,10.0,Calm,Calm,-,N/A,,Overcast,0,2011-10-03 05:15:00
11:35 PM,48.2,35.6,62,30.40,10.0,Calm,Calm,-,N/A,,Mostly Cloudy,0,2011-10-03 05:35:00
11:55 PM,48.2,35.6,62,30.40,10.0,Calm,Calm,-,N/A,,Partly Cloudy,0,2011-10-03 05:55:00